Time;durP1;ratioP1;P1;durP2;ratioP2;P2;SDS_P1;SDS_P2;PMS_P1;PMS_P2;Temp;Humidity;BMP_temperature;BMP_pressure;BME280_temperature;BME280_humidity;BME280_pressure;Samples;Min_cycle;Max_cycle;Signal;HPM_P1;HPM_P2
2021/01/31 00:02:11;;;;;;;51.23;16.63;;;;;;;-4.42;78.87;99513.63;3522356;80;26505;-78
2021/01/31 00:07:13;;;;;;;51.80;18.25;;;;;;;-4.44;79.19;99521.17;3526873;81;98637;-77
2021/01/31 00:12:14;;;;;;;53.47;18.43;;;;;;;-4.38;79.54;99521.31;3526096;82;27484;-77
2021/01/31 00:17:15;;;;;;;54.63;15.97;;;;;;;-4.18;79.33;99528.94;3446470;83;98426;-77
2021/01/31 00:22:16;;;;;;;51.33;17.57;;;;;;;-4.32;79.18;99523.59;3542952;82;26811;-77
2021/01/31 00:27:17;;;;;;;48.17;17.37;;;;;;;-4.25;79.72;99517.82;3540233;81;98197;-77
2021/01/31 00:32:28;;;;;;;43.55;15.00;;;;;;;-4.11;79.63;99523.40;3548701;77;26484;-86
2021/01/31 00:37:29;;;;;;;53.70;20.10;;;;;;;-3.98;80.34;99518.52;3593689;76;98364;-86
2021/01/31 00:42:30;;;;;;;39.70;13.80;;;;;;;-4.00;79.88;99517.23;3605594;79;26073;-86
2021/01/31 00:47:31;;;;;;;43.50;15.10;;;;;;;-3.91;80.27;99518.92;3597291;79;98370;-86
2021/01/31 00:52:32;;;;;;;36.93;13.10;;;;;;;-3.81;80.13;99523.26;3605272;79;26373;-86
2021/01/31 00:57:33;;;;;;;31.37;12.10;;;;;;;-3.73;80.35;99521.17;3596170;80;98485;-86
2021/01/31 01:02:34;;;;;;;30.70;12.47;;;;;;;-3.78;80.31;99514.59;3570268;77;26533;-76
2021/01/31 01:07:35;;;;;;;30.57;12.73;;;;;;;-3.69;80.35;99510.86;3408086;84;98635;-76
2021/01/31 01:12:37;;;;;;;27.93;10.87;;;;;;;-3.64;80.59;99520.69;3409271;85;26064;-76
2021/01/31 01:17:38;;;;;;;29.47;10.87;;;;;;;-3.67;80.39;99507.88;3397614;84;98527;-77
2021/01/31 01:22:39;;;;;;;34.27;11.67;;;;;;;-3.60;80.71;99505.55;3407327;85;25883;-77
2021/01/31 01:27:40;;;;;;;29.37;12.37;;;;;;;-3.56;80.80;99511.34;3402826;85;98724;-77
2021/01/31 01:32:41;;;;;;;33.10;13.63;;;;;;;-3.40;80.98;99517.92;3392128;85;26187;-78
2021/01/31 01:37:42;;;;;;;31.48;11.08;;;;;;;-3.46;80.72;99508.41;3396278;83;98273;-77
2021/01/31 01:42:43;;;;;;;32.37;11.33;;;;;;;-3.31;80.72;99513.94;3395138;85;33741;-77
2021/01/31 01:47:46;;;;;;;25.30;9.57;;;;;;;-3.27;80.70;99504.16;3417306;79;98426;-86
2021/01/31 01:52:48;;;;;;;26.33;10.33;;;;;;;-3.14;80.72;99509.45;3568877;80;26509;-86
2021/01/31 01:58:00;;;;;;;27.67;11.00;;;;;;;-3.11;80.83;99508.81;3579341;79;98459;-86
2021/01/31 02:03:06;;;;;;;26.77;10.67;;;;;;;-3.04;80.43;99498.42;3577456;80;33096;-86
2021/01/31 02:08:07;;;;;;;19.90;10.33;;;;;;;-3.06;80.71;99507.91;3579423;80;98408;-86
2021/01/31 02:13:09;;;;;;;24.03;9.77;;;;;;;-2.96;80.20;99503.60;3570225;80;32859;-86
2021/01/31 02:18:28;;;;;;;22.10;10.03;;;;;;;-2.95;80.15;99512.69;3573759;80;97961;-86
2021/01/31 02:24:11;;;;;;;20.60;8.90;;;;;;;-2.97;80.23;99513.56;3597165;80;33434;-85
2021/01/31 02:29:50;;;;;;;22.97;9.43;;;;;;;-2.91;79.82;99502.09;3603222;80;32816;-86
2021/01/31 02:35:02;;;;;;;20.53;8.47;;;;;;;-2.93;79.89;99499.73;3591704;79;98553;-84
2021/01/31 02:40:08;;;;;;;21.10;8.07;;;;;;;-2.94;79.14;99498.69;3586215;80;32895;-86
2021/01/31 02:45:13;;;;;;;;;;;;;;;-2.96;79.14;99505.73;3565556;81;98533;-85
2021/01/31 02:50:24;;;;;;;20.00;8.13;;;;;;;-2.88;78.99;99503.64;3588233;80;26088;-84
2021/01/31 02:55:31;;;;;;;20.60;8.20;;;;;;;-2.83;78.77;99503.50;3573195;80;98152;-86
2021/01/31 03:00:35;;;;;;;;;;;;;;;-3.09;78.53;99495.06;3597396;80;25825;-85
2021/01/31 03:05:43;;;;;;;23.00;8.93;;;;;;;-3.13;78.66;99495.42;3581844;77;84407;-77
2021/01/31 03:10:58;;;;;;;20.50;9.07;;;;;;;-3.29;78.45;99501.00;3566079;80;33437;-77
2021/01/31 03:16:16;;;;;;;23.40;8.63;;;;;;;-3.31;78.63;99495.11;3686805;77;98126;-77
2021/01/31 03:21:27;;;;;;;19.53;8.23;;;;;;;-3.43;78.34;99494.89;3689571;78;32954;-77
2021/01/31 03:26:34;;;;;;;20.65;9.45;;;;;;;-3.64;78.24;99494.61;3683920;78;98718;-76
2021/01/31 03:31:40;;;;;;;25.20;8.93;;;;;;;-3.69;78.42;99498.77;3688585;77;25983;-76
2021/01/31 03:36:44;;;;;;;;;;;;;;;-3.65;78.29;99504.32;3657942;76;98546;-80
2021/01/31 03:41:45;;;;;;;29.97;11.73;;;;;;;-3.67;78.18;99512.69;3663904;79;25821;-81
2021/01/31 03:47:06;;;;;;;36.97;14.10;;;;;;;-3.72;77.86;99520.09;3668943;77;98315;-80
2021/01/31 03:52:07;;;;;;;60.30;18.03;;;;;;;-3.82;78.20;99516.30;3613821;76;33404;-84
2021/01/31 03:57:17;;;;;;;73.47;22.30;;;;;;;-4.03;77.81;99518.66;3599345;79;98260;-84
2021/01/31 04:02:26;;;;;;;117.73;29.87;;;;;;;-4.18;78.65;99522.22;3605337;80;31537;-83
2021/01/31 04:07:34;;;;;;;170.43;40.93;;;;;;;-4.08;78.87;99523.34;3492494;80;98579;-80
2021/01/31 04:12:40;;;;;;;68.07;22.77;;;;;;;-3.91;79.55;99524.83;3543679;82;25803;-79
2021/01/31 04:17:46;;;;;;;39.73;13.62;;;;;;;-3.79;79.79;99529.92;3543171;82;98625;-79
2021/01/31 04:22:47;;;;;;;32.45;12.55;;;;;;;-3.74;79.80;99527.11;3545000;81;25949;-80
2021/01/31 04:27:48;;;;;;;34.03;12.83;;;;;;;-3.64;79.75;99531.45;3541934;81;98517;-80
2021/01/31 04:32:49;;;;;;;32.70;11.93;;;;;;;-3.59;80.36;99524.60;3545571;82;32347;-80
2021/01/31 04:37:50;;;;;;;26.60;12.47;;;;;;;-3.55;80.02;99532.31;3432831;80;98895;-83
2021/01/31 04:42:51;;;;;;;25.07;11.43;;;;;;;-3.45;80.30;99531.50;3443068;83;33042;-83
2021/01/31 04:48:32;;;;;;;24.57;10.60;;;;;;;-3.35;80.23;99527.75;3450612;84;98457;-83
2021/01/31 04:53:53;;;;;;;22.57;9.63;;;;;;;-3.34;79.87;99540.12;3480528;83;27595;-84
2021/01/31 04:59:02;;;;;;;27.90;10.87;;;;;;;-3.37;79.93;99542.07;3473232;82;33677;-85
2021/01/31 05:04:08;;;;;;;24.32;9.70;;;;;;;-3.27;80.16;99539.91;3451364;82;98596;-85
2021/01/31 05:09:18;;;;;;;28.27;11.03;;;;;;;-3.23;80.17;99543.58;3487231;82;32858;-86
2021/01/31 05:14:50;;;;;;;24.92;9.90;;;;;;;-3.18;80.10;99541.33;3472208;82;98318;-85
2021/01/31 05:19:52;;;;;;;23.00;8.23;;;;;;;-3.14;79.83;99549.01;3496229;81;32867;-83
2021/01/31 05:24:54;;;;;;;25.47;9.77;;;;;;;-3.17;79.80;99549.64;3521700;81;98523;-84
2021/01/31 05:29:55;;;;;;;29.23;11.00;;;;;;;-3.22;79.78;99544.39;3505397;82;32980;-83
2021/01/31 05:34:58;;;;;;;23.60;9.73;;;;;;;-3.25;80.01;99544.45;3528744;81;98767;-82
2021/01/31 05:40:10;;;;;;;23.03;9.20;;;;;;;-3.25;80.03;99545.80;3526327;81;32843;-83
2021/01/31 05:45:23;;;;;;;18.10;7.17;;;;;;;-3.21;79.80;99550.81;3539735;81;98672;-82
2021/01/31 05:50:38;;;;;;;21.83;9.37;;;;;;;-3.18;80.14;99550.18;3513869;79;25873;-79
2021/01/31 05:55:39;;;;;;;18.70;7.03;;;;;;;-3.13;79.47;99555.97;3426182;83;98543;-78
2021/01/31 06:00:41;;;;;;;24.50;8.27;;;;;;;-3.19;79.72;99570.66;3432631;83;32816;-79
2021/01/31 06:05:42;;;;;;;26.40;10.33;;;;;;;-3.15;79.71;99577.83;3413686;81;98559;-83
2021/01/31 06:10:49;;;;;;;25.27;10.43;;;;;;;-3.18;79.72;99574.97;3360344;86;32945;-83
2021/01/31 06:15:56;;;;;;;;;;;;;;;-3.12;79.71;99579.89;3347016;86;98339;-82
2021/01/31 06:21:19;;;;;;;20.33;7.83;;;;;;;-3.09;79.40;99587.90;3473147;80;25741;-85
2021/01/31 06:26:28;;;;;;;18.17;7.57;;;;;;;-3.17;79.34;99594.03;3597255;79;98307;-85
2021/01/31 06:32:02;;;;;;;17.03;7.00;;;;;;;-3.26;79.13;99602.59;3633858;79;32782;-84
2021/01/31 06:37:29;;;;;;;16.13;6.07;;;;;;;-3.24;79.29;99605.76;3678095;77;98414;-78
2021/01/31 06:42:47;;;;;;;18.60;6.47;;;;;;;-3.32;78.77;99611.88;3720503;77;26136;-78
2021/01/31 06:48:19;;;;;;;17.90;7.00;;;;;;;-3.37;78.97;99616.04;3696227;77;97913;-76
2021/01/31 06:53:57;;;;;;;18.50;7.07;;;;;;;-3.40;78.85;99616.63;3721091;77;33652;-78
2021/01/31 06:59:37;;;;;;;18.83;7.90;;;;;;;-3.48;78.56;99613.34;3719808;77;25873;-77
2021/01/31 07:05:20;;;;;;;20.87;7.03;;;;;;;-3.51;78.76;99628.19;3791235;75;98516;-81
2021/01/31 07:10:55;;;;;;;20.33;7.67;;;;;;;-3.52;78.61;99624.45;3594985;80;25638;-81
2021/01/31 07:16:21;;;;;;;17.12;6.92;;;;;;;-3.58;78.76;99628.36;3588143;81;98166;-81
2021/01/31 07:21:27;;;;;;;8.53;3.90;;;;;;;-3.51;78.70;99638.95;3604584;79;25734;-83
2021/01/31 07:26:40;;;;;;;26.40;8.43;;;;;;;-3.41;78.69;99637.38;3613858;79;98318;-84
2021/01/31 07:31:50;;;;;;;22.27;7.63;;;;;;;-3.39;78.63;99640.55;3621432;79;32937;-82
2021/01/31 07:37:02;;;;;;;20.03;8.43;;;;;;;-3.30;78.62;99645.45;3660036;77;98642;-78
2021/01/31 07:42:04;;;;;;;21.57;10.50;;;;;;;-3.23;78.31;99639.66;3691761;77;25973;-79
2021/01/31 07:47:06;;;;;;;19.83;8.23;;;;;;;-3.33;77.87;99639.33;3687116;78;98192;-79
2021/01/31 07:52:09;;;;;;;23.43;8.83;;;;;;;-3.38;78.24;99640.01;3695295;77;25982;-79
2021/01/31 07:57:37;;;;;;;22.30;10.00;;;;;;;-3.45;78.16;99640.98;3694904;77;98001;-79
2021/01/31 08:02:42;;;;;;;19.53;8.23;;;;;;;-3.42;78.56;99657.31;3693337;77;25909;-79
2021/01/31 08:08:07;;;;;;;27.82;10.00;;;;;;;-3.32;78.61;99654.92;3686046;76;98384;-80
2021/01/31 08:13:33;;;;;;;26.23;9.80;;;;;;;-3.24;78.33;99665.75;3702934;77;26027;-79
2021/01/31 08:18:40;;;;;;;20.35;8.78;;;;;;;-3.17;78.69;99655.35;3676795;77;98256;-80
2021/01/31 08:23:47;;;;;;;17.80;7.70;;;;;;;-3.04;78.19;99662.59;3687443;76;25842;-84
2021/01/31 08:28:57;;;;;;;16.40;7.43;;;;;;;-2.89;78.91;99670.27;3550648;82;33377;-85
2021/01/31 08:34:03;;;;;;;16.90;6.67;;;;;;;-2.71;78.72;99677.91;3544773;82;101764;-85
2021/01/31 08:39:10;;;;;;;17.57;7.17;;;;;;;-2.62;78.13;99666.64;3559459;82;32922;-86
2021/01/31 08:44:16;;;;;;;14.90;6.40;;;;;;;-2.53;78.02;99666.92;3528462;82;98578;-86
2021/01/31 08:49:17;;;;;;;17.43;6.67;;;;;;;-2.41;77.46;99672.53;3466501;84;33416;-86
2021/01/31 08:54:21;;;;;;;24.40;9.53;;;;;;;-2.33;77.53;99667.75;3481842;80;98529;-81
2021/01/31 08:59:30;;;;;;;22.77;8.20;;;;;;;-2.20;77.23;99678.19;3449207;83;25982;-80
2021/01/31 09:04:32;;;;;;;29.72;12.23;;;;;;;-2.07;76.93;99686.14;3404158;84;98120;-80
2021/01/31 09:09:37;;;;;;;29.07;11.57;;;;;;;-1.94;76.51;99673.66;3503550;78;26433;-81
2021/01/31 09:14:41;;;;;;;25.12;11.73;;;;;;;-1.83;76.38;99669.56;3696554;78;98907;-81
2021/01/31 09:19:42;;;;;;;17.17;7.07;;;;;;;-1.66;76.69;99673.09;3713452;78;25799;-81
2021/01/31 09:24:51;;;;;;;29.17;10.20;;;;;;;-1.45;76.13;99670.03;3677345;76;98332;-88
2021/01/31 09:30:05;;;;;;;17.10;6.47;;;;;;;-1.16;75.92;99672.12;3660457;78;25876;-89
2021/01/31 09:35:14;;;;;;;24.30;7.93;;;;;;;-0.90;74.11;99681.78;3657322;78;101134;-87
2021/01/31 09:40:15;;;;;;;18.63;8.90;;;;;;;-0.74;73.76;99682.88;3658251;79;25792;-89
2021/01/31 09:45:33;;;;;;;15.77;6.20;;;;;;;-0.67;73.21;99683.17;3662563;78;98339;-86
2021/01/31 09:50:36;;;;;;;21.00;8.80;;;;;;;-0.58;72.81;99681.25;3663936;78;25994;-89
2021/01/31 09:55:43;;;;;;;22.10;10.23;;;;;;;-0.36;73.02;99685.09;3659459;77;98138;-88
2021/01/31 10:00:45;;;;;;;22.40;7.87;;;;;;;-0.28;72.35;99682.90;3667574;78;25998;-87
2021/01/31 10:05:47;;;;;;;25.00;7.95;;;;;;;-0.15;72.38;99690.03;3656573;78;98658;-86
2021/01/31 10:10:48;;;;;;;22.27;7.57;;;;;;;-0.07;71.75;99687.06;3672254;77;32916;-79
2021/01/31 10:16:01;;;;;;;18.07;7.13;;;;;;;-0.03;71.09;99682.02;3669814;76;98431;-79
2021/01/31 10:21:23;;;;;;;20.97;6.67;;;;;;;0.04;70.08;99691.22;3674792;78;25863;-80
2021/01/31 10:26:24;;;;;;;15.83;6.55;;;;;;;-0.07;70.67;99697.30;3655436;77;98247;-79
2021/01/31 10:31:38;;;;;;;17.70;7.00;;;;;;;-0.18;69.18;99693.36;3701823;77;33702;-79
2021/01/31 10:36:45;;;;;;;25.65;9.38;;;;;;;-0.18;70.44;99685.25;3714619;77;98630;-79
2021/01/31 10:41:47;;;;;;;15.53;6.37;;;;;;;-0.06;70.97;99686.70;3695803;77;26197;-80
2021/01/31 10:46:48;;;;;;;20.60;8.00;;;;;;;-0.04;70.90;99665.56;3645014;78;98807;-80
2021/01/31 10:51:49;;;;;;;15.97;6.20;;;;;;;0.06;70.65;99684.91;3656854;78;33698;-80
2021/01/31 10:56:51;;;;;;;24.37;9.33;;;;;;;-0.05;70.37;99682.34;3583705;79;98168;-83
2021/01/31 11:01:52;;;;;;;19.47;8.13;;;;;;;-0.01;70.51;99681.13;3528778;82;32891;-82
2021/01/31 11:06:53;;;;;;;18.73;8.03;;;;;;;-0.03;70.51;99671.20;3529189;81;98298;-82
2021/01/31 11:11:54;;;;;;;29.50;9.73;;;;;;;-0.02;70.02;99668.72;3656230;79;32957;-83
2021/01/31 11:16:55;;;;;;;20.80;9.73;;;;;;;-0.02;70.50;99666.59;3649252;78;98444;-82
2021/01/31 11:21:56;;;;;;;35.67;13.10;;;;;;;-0.04;70.24;99673.67;3672914;78;33002;-83
2021/01/31 11:26:57;;;;;;;29.73;11.30;;;;;;;-0.06;69.58;99673.19;3678561;78;98739;-84
2021/01/31 11:31:58;;;;;;;21.90;8.57;;;;;;;-0.12;69.68;99673.95;3702546;77;32593;-84
2021/01/31 11:36:59;;;;;;;23.03;11.30;;;;;;;-0.17;70.17;99667.91;3699014;77;98344;-84
2021/01/31 11:42:00;;;;;;;30.70;12.50;;;;;;;-0.19;69.96;99670.16;3685854;77;32937;-80
2021/01/31 11:47:05;;;;;;;30.40;12.60;;;;;;;-0.17;70.37;99662.50;3696764;77;98313;-80
2021/01/31 11:52:06;;;;;;;27.57;14.40;;;;;;;-0.18;70.27;99670.95;3696330;78;25918;-79
2021/01/31 11:57:07;;;;;;;31.40;14.00;;;;;;;-0.27;69.73;99662.08;3686409;76;98313;-81
2021/01/31 12:02:08;;;;;;;27.90;12.57;;;;;;;-0.27;70.70;99661.53;3689134;77;32825;-80
2021/01/31 12:07:10;;;;;;;48.60;16.40;;;;;;;-0.27;70.50;99652.07;3699872;77;98534;-80
2021/01/31 12:12:11;;;;;;;39.20;16.63;;;;;;;-0.23;70.55;99645.45;3678197;77;32812;-86
2021/01/31 12:17:12;;;;;;;34.53;13.87;;;;;;;-0.22;70.32;99638.34;3748983;75;98219;-85
2021/01/31 12:22:13;;;;;;;41.17;13.80;;;;;;;-0.27;70.38;99630.44;3764210;76;32826;-84
2021/01/31 12:27:14;;;;;;;25.30;11.57;;;;;;;-0.20;70.04;99619.91;3776941;76;98124;-84
2021/01/31 12:32:15;;;;;;;22.13;10.63;;;;;;;-0.15;70.84;99619.14;3836779;75;32821;-84
2021/01/31 12:37:18;;;;;;;30.47;10.73;;;;;;;-0.12;70.02;99605.53;3821869;74;98113;-84
2021/01/31 12:42:19;;;;;;;28.90;11.63;;;;;;;-0.09;70.68;99604.31;3742989;76;33322;-80
2021/01/31 12:47:20;;;;;;;22.77;9.90;;;;;;;-0.07;70.65;99602.10;3587650;78;98533;-80
2021/01/31 12:52:21;;;;;;;22.97;10.03;;;;;;;-0.09;70.78;99595.44;3581893;80;33288;-81
2021/01/31 12:57:22;;;;;;;31.07;11.27;;;;;;;-0.12;69.34;99599.35;3591526;78;98448;-84
2021/01/31 13:02:24;;;;;;;23.00;9.50;;;;;;;-0.17;70.39;99593.55;3603164;80;32874;-83
2021/01/31 13:07:24;;;;;;;28.00;10.57;;;;;;;-0.13;70.16;99589.08;3590675;79;98071;-84
2021/01/31 13:12:45;;;;;;;25.57;9.83;;;;;;;-0.15;69.77;99584.00;3625471;79;32338;-84
2021/01/31 13:17:46;;;;;;;25.97;10.00;;;;;;;-0.18;70.22;99585.79;3557472;79;98261;-83
2021/01/31 13:22:47;;;;;;;18.57;8.83;;;;;;;-0.19;70.52;99582.28;3570755;80;32783;-85
2021/01/31 13:27:49;;;;;;;23.10;10.43;;;;;;;-0.15;70.28;99587.28;3556648;80;98212;-84
2021/01/31 13:32:51;;;;;;;29.10;11.97;;;;;;;-0.12;70.41;99587.19;3561607;80;33695;-83
2021/01/31 13:37:52;;;;;;;22.17;9.03;;;;;;;-0.14;70.50;99573.98;3558448;78;98145;-84
2021/01/31 13:42:53;;;;;;;24.73;12.20;;;;;;;-0.13;71.08;99580.20;3560649;80;33225;-84
2021/01/31 13:47:54;;;;;;;27.27;9.67;;;;;;;-0.08;70.90;99580.78;3559117;80;98102;-84
2021/01/31 13:52:55;;;;;;;25.93;12.03;;;;;;;-0.07;70.68;99581.59;3567145;80;32863;-84
2021/01/31 13:57:56;;;;;;;26.40;11.57;;;;;;;-0.20;71.03;99564.48;3604203;76;98309;-80
2021/01/31 14:02:57;;;;;;;42.60;16.63;;;;;;;-0.20;71.03;99564.48;3695371;77;32837;-81
2021/01/31 14:07:58;;;;;;;22.47;9.07;;;;;;;-0.10;71.10;99583.81;3679106;77;98522;-81
2021/01/31 14:12:59;;;;;;;23.80;11.37;;;;;;;-0.15;71.03;99592.11;3678889;78;32283;-84
2021/01/31 14:18:00;;;;;;;32.43;13.37;;;;;;;-0.11;71.23;99590.34;3659905;78;98238;-84
2021/01/31 14:23:01;;;;;;;26.37;11.60;;;;;;;-0.10;71.12;99595.98;3656953;79;31194;-83
2021/01/31 14:28:06;;;;;;;26.73;12.67;;;;;;;-0.19;71.23;99586.34;3661721;78;98320;-84
2021/01/31 14:33:07;;;;;;;27.60;12.83;;;;;;;-0.23;71.10;99579.22;3462839;82;33280;-83
2021/01/31 14:38:08;;;;;;;34.10;14.23;;;;;;;-0.24;71.74;99573.58;3451132;83;98762;-84
2021/01/31 14:43:09;;;;;;;29.63;13.40;;;;;;;-0.22;71.95;99575.61;3451584;83;33581;-85
2021/01/31 14:48:10;;;;;;;36.37;16.17;;;;;;;-0.21;71.78;99571.01;3430598;84;98295;-84
2021/01/31 14:53:11;;;;;;;37.05;17.60;;;;;;;-0.27;72.03;99564.76;3442314;83;32813;-84
2021/01/31 14:58:12;;;;;;;40.30;16.50;;;;;;;-0.29;72.01;99564.30;3472257;83;98398;-84
2021/01/31 15:03:13;;;;;;;40.97;18.47;;;;;;;-0.33;72.36;99564.71;3429431;84;32811;-84
2021/01/31 15:08:16;;;;;;;45.40;21.43;;;;;;;-0.35;72.33;99554.22;3425118;83;98193;-85
2021/01/31 15:13:17;;;;;;;65.07;22.93;;;;;;;-0.42;72.31;99548.54;3466032;80;32807;-81
2021/01/31 15:18:19;;;;;;;55.37;22.23;;;;;;;-0.52;72.63;99537.28;3499371;80;98595;-80
2021/01/31 15:23:21;;;;;;;60.43;25.10;;;;;;;-0.65;72.84;99539.12;3488109;81;32860;-81
2021/01/31 15:28:22;;;;;;;52.73;24.47;;;;;;;-0.72;73.09;99538.03;3518352;80;98496;-83
2021/01/31 15:33:23;;;;;;;54.17;22.57;;;;;;;-0.82;73.29;99533.75;3627865;80;32875;-83
2021/01/31 15:38:24;;;;;;;43.47;20.60;;;;;;;-0.93;73.40;99531.17;3631807;78;98475;-84
2021/01/31 15:43:25;;;;;;;44.20;19.77;;;;;;;-1.00;73.60;99528.77;3624650;80;32953;-84
2021/01/31 15:48:26;;;;;;;40.93;19.20;;;;;;;-1.06;73.76;99527.33;3620393;79;98444;-83
2021/01/31 15:53:27;;;;;;;41.20;20.00;;;;;;;-1.12;73.88;99524.56;3618070;78;33391;-83
2021/01/31 15:58:29;;;;;;;41.60;18.70;;;;;;;-1.22;73.95;99524.94;3634098;78;98673;-81
2021/01/31 16:03:30;;;;;;;51.23;21.80;;;;;;;-1.33;74.14;99516.37;3650444;78;98698;-81
2021/01/31 16:08:31;;;;;;;46.93;18.67;;;;;;;-1.42;74.31;99521.55;3654216;78;32017;-81
2021/01/31 16:13:32;;;;;;;43.85;18.27;;;;;;;-1.49;74.57;99515.28;3631736;77;98389;-82
2021/01/31 16:18:33;;;;;;;45.40;18.87;;;;;;;-1.51;74.64;99529.66;3588122;80;30038;-84
2021/01/31 16:23:34;;;;;;;55.50;23.83;;;;;;;-1.56;74.78;99523.08;3572280;81;98192;-83
2021/01/31 16:28:35;;;;;;;54.37;22.27;;;;;;;-1.56;74.97;99519.03;3585862;80;25900;-83
2021/01/31 16:33:36;;;;;;;48.45;21.30;;;;;;;-1.61;74.90;99526.48;3567253;80;98549;-82
2021/01/31 16:38:37;;;;;;;56.60;23.30;;;;;;;-1.63;75.08;99530.06;3532250;81;31580;-82
2021/01/31 16:48:41;;;;;;;68.80;27.57;;;;;;;-1.68;75.11;99524.28;3721463;77;25946;-80
2021/01/31 16:53:43;;;;;;;63.57;28.97;;;;;;;-1.76;75.10;99516.97;3699601;77;98097;-81
2021/01/31 16:58:43;;;;;;;58.60;24.43;;;;;;;-1.84;75.28;99517.78;3697775;77;31730;-86
2021/01/31 17:03:44;;;;;;;51.40;22.90;;;;;;;-1.91;75.39;99524.75;3721265;77;98109;-86
2021/01/31 17:08:45;;;;;;;51.10;22.20;;;;;;;-1.97;75.59;99524.09;3737745;76;31610;-85
2021/01/31 17:13:47;;;;;;;46.73;21.67;;;;;;;-1.97;75.71;99517.94;3726280;76;98104;-85
2021/01/31 17:18:48;;;;;;;49.93;21.77;;;;;;;-2.05;75.87;99520.05;3749151;76;29678;-85
2021/01/31 17:23:49;;;;;;;56.45;24.23;;;;;;;-2.13;76.08;99520.85;3735204;76;98110;-85
2021/01/31 17:28:50;;;;;;;46.50;21.57;;;;;;;-2.15;76.16;99519.01;3700878;77;30757;-84
2021/01/31 17:33:51;;;;;;;52.70;23.83;;;;;;;-2.19;76.13;99522.12;3646475;78;98655;-83
2021/01/31 17:38:52;;;;;;;65.07;27.13;;;;;;;-2.24;76.27;99519.00;3658622;79;32123;-84
2021/01/31 17:43:53;;;;;;;68.67;27.53;;;;;;;-2.26;76.28;99517.72;3676654;76;98753;-82
2021/01/31 17:48:54;;;;;;;60.20;26.37;;;;;;;-2.27;76.33;99514.25;3747189;77;27819;-81
2021/01/31 17:53:55;;;;;;;65.13;26.57;;;;;;;-2.28;76.10;99509.17;3737976;76;98707;-80
2021/01/31 17:58:56;;;;;;;76.87;29.63;;;;;;;-2.37;76.14;99515.89;3716970;77;34931;-90
2021/01/31 18:03:57;;;;;;;70.23;28.80;;;;;;;-2.38;76.20;99518.36;3658649;78;98610;-89
2021/01/31 18:08:59;;;;;;;65.13;26.13;;;;;;;-2.38;76.28;99521.05;3665816;78;34848;-90
2021/01/31 18:14:00;;;;;;;55.67;23.75;;;;;;;-2.39;76.24;99516.77;3648142;76;100882;-85
2021/01/31 18:19:01;;;;;;;61.33;23.60;;;;;;;-2.46;76.31;99504.30;3746101;77;34797;-85
2021/01/31 18:24:02;;;;;;;71.77;27.57;;;;;;;-2.47;76.34;99508.67;3736223;76;98515;-84
2021/01/31 18:29:04;;;;;;;66.53;25.63;;;;;;;-2.55;76.08;99496.77;3720937;77;35665;-85
2021/01/31 18:34:05;;;;;;;61.70;26.10;;;;;;;-2.68;76.15;99510.36;3604775;79;98614;-84
2021/01/31 18:39:06;;;;;;;64.60;25.57;;;;;;;-2.74;76.55;99507.56;3589589;81;35674;-84
2021/01/31 18:44:09;;;;;;;71.43;28.27;;;;;;;-2.77;76.49;99503.59;3605905;79;98137;-84
2021/01/31 18:49:10;;;;;;;62.77;24.90;;;;;;;-2.81;76.40;99502.62;3615053;81;34893;-83
2021/01/31 18:54:11;;;;;;;64.63;24.27;;;;;;;-2.89;76.57;99502.59;3606412;78;98130;-83
2021/01/31 18:59:14;;;;;;;72.43;27.57;;;;;;;-2.95;76.53;99507.31;3616545;81;34810;-84
2021/01/31 19:04:21;;;;;;;81.27;29.73;;;;;;;-3.03;76.89;99503.23;3607481;81;98101;-84
2021/01/31 19:09:23;;;;;;;77.30;28.60;;;;;;;-3.01;77.05;99503.74;3610389;81;25740;-85
2021/01/31 19:14:24;;;;;;;62.27;25.17;;;;;;;-3.01;76.94;99492.41;3623912;78;98258;-85
2021/01/31 19:19:25;;;;;;;60.97;25.43;;;;;;;-3.04;76.93;99500.31;3617657;78;98737;-85
2021/01/31 19:24:27;;;;;;;60.40;24.47;;;;;;;-3.03;77.36;99490.59;3659081;78;35246;-84
2021/01/31 19:29:27;;;;;;;58.17;23.57;;;;;;;-3.04;77.03;99494.92;3615379;78;98457;-81
2021/01/31 19:34:34;;;;;;;58.73;23.57;;;;;;;-2.97;76.81;99495.27;3607907;80;35313;-81
2021/01/31 19:39:35;;;;;;;69.93;25.87;;;;;;;-2.98;76.64;99490.45;3644659;76;98343;-81
2021/01/31 19:44:36;;;;;;;69.63;28.00;;;;;;;-3.10;77.00;99492.13;3573815;79;26829;-88
2021/01/31 19:49:37;;;;;;;73.03;25.90;;;;;;;-3.17;76.96;99491.80;3532965;80;98504;-87
2021/01/31 19:54:38;;;;;;;77.10;28.27;;;;;;;-3.24;77.00;99492.77;3575304;81;34848;-90
2021/01/31 19:59:39;;;;;;;74.30;29.40;;;;;;;-3.34;76.89;99507.84;3597739;77;98952;-85
2021/01/31 20:04:40;;;;;;;64.67;27.43;;;;;;;-3.46;77.18;99500.33;3688076;77;34774;-87
2021/01/31 20:09:42;;;;;;;69.83;27.33;;;;;;;-3.47;77.57;99493.38;3687668;78;98289;-85
2021/01/31 20:14:43;;;;;;;65.57;27.37;;;;;;;-3.46;77.34;99508.41;3699277;77;35352;-81
2021/01/31 20:19:44;;;;;;;74.62;29.75;;;;;;;-3.40;77.61;99503.13;3662666;77;98634;-81
2021/01/31 20:24:45;;;;;;;68.12;28.02;;;;;;;-3.35;77.41;99497.63;3662999;78;35440;-80
2021/01/31 20:29:46;;;;;;;71.13;28.17;;;;;;;-3.39;77.48;99505.28;3661696;78;98299;-79
2021/01/31 20:34:47;;;;;;;88.47;35.17;;;;;;;-3.38;77.44;99496.88;3670636;78;34838;-81
2021/01/31 20:39:48;;;;;;;87.73;35.70;;;;;;;-3.45;77.34;99491.16;3659265;77;99031;-80
2021/01/31 20:44:49;;;;;;;78.23;33.33;;;;;;;-3.54;77.81;99490.87;3647100;77;34853;-80
2021/01/31 20:49:50;;;;;;;76.23;30.37;;;;;;;-3.64;77.96;99477.67;3651759;79;98274;-80
2021/01/31 20:54:52;;;;;;;56.63;24.57;;;;;;;-3.63;77.96;99484.63;3647500;79;34933;-83
2021/01/31 20:59:53;;;;;;;91.73;34.70;;;;;;;-3.71;78.04;99480.78;3645943;78;98525;-82
2021/01/31 21:04:54;;;;;;;88.40;32.57;;;;;;;-3.73;78.18;99494.28;3657020;79;34351;-83
2021/01/31 21:09:55;;;;;;;77.27;25.77;;;;;;;-3.74;78.25;99485.45;3654731;77;98589;-83
2021/01/31 21:14:56;;;;;;;69.47;26.43;;;;;;;-3.81;78.34;99485.09;3664291;78;31454;-83
2021/01/31 21:19:57;;;;;;;84.77;31.77;;;;;;;-3.85;78.51;99484.10;3650835;78;98209;-83
2021/01/31 21:24:59;;;;;;;71.10;28.30;;;;;;;-3.81;78.44;99481.59;3619699;78;32459;-80
2021/01/31 21:30:00;;;;;;;75.60;27.80;;;;;;;-3.84;78.51;99480.31;3640297;78;98370;-81
2021/01/31 21:35:01;;;;;;;59.93;24.13;;;;;;;-3.88;78.38;99474.52;3665362;78;32531;-81
2021/01/31 21:40:05;;;;;;;67.78;28.12;;;;;;;-3.92;78.67;99468.16;3661706;78;98631;-82
2021/01/31 21:45:09;;;;;;;101.33;34.88;;;;;;;-3.90;78.81;99468.09;3671453;79;32426;-81
2021/01/31 21:50:14;;;;;;;113.42;40.78;;;;;;;-3.78;78.83;99473.71;3658589;77;98452;-81
2021/01/31 21:55:16;;;;;;;152.68;51.00;;;;;;;-3.89;78.45;99471.56;3607979;79;26099;-86
2021/01/31 22:00:21;;;;;;;226.70;70.83;;;;;;;-3.89;78.51;99470.22;3595362;78;98664;-85
2021/01/31 22:05:22;;;;;;;214.27;67.53;;;;;;;-3.87;78.45;99469.38;3516208;82;26226;-85
2021/01/31 22:10:24;;;;;;;169.40;56.73;;;;;;;-3.89;78.37;99466.99;3708572;76;121954;-84
2021/01/31 22:15:25;;;;;;;208.23;68.43;;;;;;;-4.02;78.02;99477.27;3732450;78;32478;-84
2021/01/31 22:20:27;;;;;;;209.93;66.37;;;;;;;-4.06;77.74;99468.21;3719499;78;98478;-84
2021/01/31 22:25:28;;;;;;;196.63;62.67;;;;;;;-4.05;77.94;99469.80;3735030;78;32514;-84
2021/01/31 22:30:29;;;;;;;188.23;62.00;;;;;;;-3.98;78.11;99464.01;3725210;77;98843;-84
2021/01/31 22:35:31;;;;;;;171.13;57.50;;;;;;;-4.08;77.36;99468.27;3729981;78;32945;-83
2021/01/31 22:40:34;;;;;;;140.40;52.00;;;;;;;-4.20;77.27;99467.45;3653019;76;99055;-84
2021/01/31 22:45:35;;;;;;;115.37;45.23;;;;;;;-4.36;77.46;99478.29;3645817;78;29991;-85
2021/01/31 22:50:38;;;;;;;102.20;40.70;;;;;;;-4.42;77.50;99477.38;3633750;78;98652;-84
2021/01/31 22:55:40;;;;;;;91.87;41.70;;;;;;;-4.48;77.64;99469.97;3769165;75;30087;-80
2021/01/31 23:00:47;;;;;;;102.12;42.45;;;;;;;-4.46;77.47;99467.80;3772118;76;98350;-80
2021/01/31 23:05:51;;;;;;;114.92;44.83;;;;;;;-4.45;77.57;99466.70;3789153;75;33906;-80
2021/01/31 23:10:52;;;;;;;131.43;43.85;;;;;;;-4.47;77.84;99466.19;3514996;78;98441;-83
2021/01/31 23:15:53;;;;;;;194.13;60.13;;;;;;;-4.53;78.01;99463.37;3480156;82;32530;-83
2021/01/31 23:20:54;;;;;;;160.77;57.80;;;;;;;-4.50;78.02;99462.78;3573467;79;98415;-83
2021/01/31 23:25:55;;;;;;;135.13;46.10;;;;;;;-4.54;77.50;99458.32;3571132;80;32421;-84
2021/01/31 23:30:56;;;;;;;110.53;42.17;;;;;;;-4.70;77.28;99461.08;3522621;82;98502;-82